sensor_id;sensor_type;location;lat;lon;timestamp;P1;durP1;ratioP1;P2;durP2;ratioP2
56363;SDS011;42261;52.094;4.326;2022-07-29T00:00:32;0.88;;;0.40;;
56363;SDS011;42261;52.094;4.326;2022-07-29T00:03:16;3.00;;;1.20;;
56363;SDS011;42261;52.094;4.326;2022-07-29T00:06:01;1.25;;;0.40;;
56363;SDS011;42261;52.094;4.326;2022-07-29T00:08:45;0.77;;;0.50;;
56363;SDS011;42261;52.094;4.326;2022-07-29T00:11:29;3.80;;;0.50;;
56363;SDS011;42261;52.094;4.326;2022-07-29T00:14:13;2.42;;;0.50;;
56363;SDS011;42261;52.094;4.326;2022-07-29T00:16:58;1.10;;;0.50;;
56363;SDS011;42261;52.094;4.326;2022-07-29T00:19:42;2.42;;;0.60;;
56363;SDS011;42261;52.094;4.326;2022-07-29T00:22:26;3.60;;;0.80;;
56363;SDS011;42261;52.094;4.326;2022-07-29T00:25:11;3.95;;;0.80;;
56363;SDS011;42261;52.094;4.326;2022-07-29T00:27:56;1.95;;;0.60;;
56363;SDS011;42261;52.094;4.326;2022-07-29T00:30:39;1.30;;;0.50;;
56363;SDS011;42261;52.094;4.326;2022-07-29T00:33:27;4.05;;;0.88;;
56363;SDS011;42261;52.094;4.326;2022-07-29T00:36:12;2.22;;;0.80;;
56363;SDS011;42261;52.094;4.326;2022-07-29T00:38:56;1.45;;;0.82;;
56363;SDS011;42261;52.094;4.326;2022-07-29T00:41:41;2.08;;;0.55;;
56363;SDS011;42261;52.094;4.326;2022-07-29T00:44:25;1.60;;;0.80;;
56363;SDS011;42261;52.094;4.326;2022-07-29T00:47:11;1.77;;;0.80;;
56363;SDS011;42261;52.094;4.326;2022-07-29T00:49:55;0.75;;;0.70;;
56363;SDS011;42261;52.094;4.326;2022-07-29T00:52:40;3.88;;;0.60;;
56363;SDS011;42261;52.094;4.326;2022-07-29T00:55:25;3.08;;;0.70;;
56363;SDS011;42261;52.094;4.326;2022-07-29T00:58:09;2.10;;;0.60;;
56363;SDS011;42261;52.094;4.326;2022-07-29T01:00:56;1.45;;;0.80;;
56363;SDS011;42261;52.094;4.326;2022-07-29T01:03:41;0.98;;;0.60;;
56363;SDS011;42261;52.094;4.326;2022-07-29T01:06:25;4.72;;;0.70;;
56363;SDS011;42261;52.094;4.326;2022-07-29T01:09:10;4.50;;;0.60;;
56363;SDS011;42261;52.094;4.326;2022-07-29T01:11:55;2.33;;;0.80;;
56363;SDS011;42261;52.094;4.326;2022-07-29T01:14:39;1.30;;;0.50;;
56363;SDS011;42261;52.094;4.326;2022-07-29T01:17:26;1.33;;;0.60;;
56363;SDS011;42261;52.094;4.326;2022-07-29T01:20:23;1.60;;;0.70;;
56363;SDS011;42261;52.094;4.326;2022-07-29T01:29:41;2.40;;;0.60;;
56363;SDS011;42261;52.094;4.326;2022-07-29T01:32:29;1.25;;;0.52;;
56363;SDS011;42261;52.094;4.326;2022-07-29T01:35:17;4.60;;;0.73;;
56363;SDS011;42261;52.094;4.326;2022-07-29T01:38:11;3.00;;;0.68;;
56363;SDS011;42261;52.094;4.326;2022-07-29T01:41:02;2.50;;;0.50;;
56363;SDS011;42261;52.094;4.326;2022-07-29T01:43:57;7.57;;;0.73;;
56363;SDS011;42261;52.094;4.326;2022-07-29T01:46:49;3.70;;;0.65;;
56363;SDS011;42261;52.094;4.326;2022-07-29T01:49:36;1.15;;;0.60;;
56363;SDS011;42261;52.094;4.326;2022-07-29T01:52:34;2.70;;;0.60;;
56363;SDS011;42261;52.094;4.326;2022-07-29T01:55:24;2.35;;;0.65;;
56363;SDS011;42261;52.094;4.326;2022-07-29T01:58:12;2.67;;;0.60;;
56363;SDS011;42261;52.094;4.326;2022-07-29T02:00:57;1.23;;;0.52;;
56363;SDS011;42261;52.094;4.326;2022-07-29T02:03:45;1.10;;;0.80;;
56363;SDS011;42261;52.094;4.326;2022-07-29T02:06:29;3.25;;;0.70;;
56363;SDS011;42261;52.094;4.326;2022-07-29T02:09:15;3.67;;;0.70;;
56363;SDS011;42261;52.094;4.326;2022-07-29T02:12:00;1.00;;;0.50;;
56363;SDS011;42261;52.094;4.326;2022-07-29T02:14:47;0.80;;;0.70;;
56363;SDS011;42261;52.094;4.326;2022-07-29T02:17:33;1.00;;;0.60;;
56363;SDS011;42261;52.094;4.326;2022-07-29T02:20:21;2.38;;;0.70;;
56363;SDS011;42261;52.094;4.326;2022-07-29T02:23:06;1.73;;;0.70;;
56363;SDS011;42261;52.094;4.326;2022-07-29T02:25:53;2.42;;;0.73;;
56363;SDS011;42261;52.094;4.326;2022-07-29T02:28:39;2.83;;;0.70;;
56363;SDS011;42261;52.094;4.326;2022-07-29T02:31:28;3.17;;;0.50;;
56363;SDS011;42261;52.094;4.326;2022-07-29T02:34:15;2.35;;;0.75;;
56363;SDS011;42261;52.094;4.326;2022-07-29T02:37:00;0.57;;;0.45;;
56363;SDS011;42261;52.094;4.326;2022-07-29T02:39:45;2.45;;;0.70;;
56363;SDS011;42261;52.094;4.326;2022-07-29T02:42:31;1.40;;;0.52;;
56363;SDS011;42261;52.094;4.326;2022-07-29T02:45:16;1.38;;;0.80;;
56363;SDS011;42261;52.094;4.326;2022-07-29T02:48:00;3.60;;;0.68;;
56363;SDS011;42261;52.094;4.326;2022-07-29T02:50:51;1.25;;;0.60;;
56363;SDS011;42261;52.094;4.326;2022-07-29T02:53:39;2.75;;;0.70;;
56363;SDS011;42261;52.094;4.326;2022-07-29T02:56:27;1.63;;;0.57;;
56363;SDS011;42261;52.094;4.326;2022-07-29T02:59:12;5.35;;;0.80;;
56363;SDS011;42261;52.094;4.326;2022-07-29T03:01:58;3.63;;;0.70;;
56363;SDS011;42261;52.094;4.326;2022-07-29T03:04:44;0.95;;;0.70;;
56363;SDS011;42261;52.094;4.326;2022-07-29T03:07:28;1.92;;;0.50;;
56363;SDS011;42261;52.094;4.326;2022-07-29T03:10:13;2.20;;;0.60;;
56363;SDS011;42261;52.094;4.326;2022-07-29T03:12:58;1.13;;;0.52;;
56363;SDS011;42261;52.094;4.326;2022-07-29T03:15:43;0.88;;;0.52;;
56363;SDS011;42261;52.094;4.326;2022-07-29T03:18:28;2.75;;;0.70;;
56363;SDS011;42261;52.094;4.326;2022-07-29T03:21:13;1.25;;;0.70;;
56363;SDS011;42261;52.094;4.326;2022-07-29T03:23:57;2.25;;;0.80;;
56363;SDS011;42261;52.094;4.326;2022-07-29T03:26:42;0.93;;;0.63;;
56363;SDS011;42261;52.094;4.326;2022-07-29T03:29:27;1.08;;;0.68;;
56363;SDS011;42261;52.094;4.326;2022-07-29T03:32:12;1.00;;;0.70;;
56363;SDS011;42261;52.094;4.326;2022-07-29T03:34:56;2.75;;;0.70;;
56363;SDS011;42261;52.094;4.326;2022-07-29T03:37:40;1.55;;;0.80;;
56363;SDS011;42261;52.094;4.326;2022-07-29T03:40:26;1.52;;;0.85;;
56363;SDS011;42261;52.094;4.326;2022-07-29T03:43:12;4.40;;;0.98;;
56363;SDS011;42261;52.094;4.326;2022-07-29T03:45:59;0.93;;;0.70;;
56363;SDS011;42261;52.094;4.326;2022-07-29T03:48:46;1.90;;;0.80;;
56363;SDS011;42261;52.094;4.326;2022-07-29T03:54:17;4.22;;;1.10;;
56363;SDS011;42261;52.094;4.326;2022-07-29T03:57:01;1.10;;;0.80;;
56363;SDS011;42261;52.094;4.326;2022-07-29T03:59:46;2.03;;;0.90;;
56363;SDS011;42261;52.094;4.326;2022-07-29T04:02:31;0.93;;;0.90;;
56363;SDS011;42261;52.094;4.326;2022-07-29T04:05:16;2.08;;;1.05;;
56363;SDS011;42261;52.094;4.326;2022-07-29T04:08:00;1.98;;;1.05;;
56363;SDS011;42261;52.094;4.326;2022-07-29T04:10:46;2.75;;;0.90;;
56363;SDS011;42261;52.094;4.326;2022-07-29T04:13:31;1.70;;;0.85;;
56363;SDS011;42261;52.094;4.326;2022-07-29T04:16:16;1.15;;;0.80;;
56363;SDS011;42261;52.094;4.326;2022-07-29T04:19:00;2.63;;;1.00;;
56363;SDS011;42261;52.094;4.326;2022-07-29T04:21:44;3.90;;;0.80;;
56363;SDS011;42261;52.094;4.326;2022-07-29T04:24:29;1.35;;;0.80;;
56363;SDS011;42261;52.094;4.326;2022-07-29T04:27:13;7.22;;;1.13;;
56363;SDS011;42261;52.094;4.326;2022-07-29T04:29:58;2.33;;;0.82;;
56363;SDS011;42261;52.094;4.326;2022-07-29T04:32:43;4.10;;;0.80;;
56363;SDS011;42261;52.094;4.326;2022-07-29T04:35:27;1.48;;;1.10;;
56363;SDS011;42261;52.094;4.326;2022-07-29T04:38:12;3.30;;;1.00;;
56363;SDS011;42261;52.094;4.326;2022-07-29T04:40:58;2.15;;;0.85;;
56363;SDS011;42261;52.094;4.326;2022-07-29T04:43:43;3.28;;;0.80;;
56363;SDS011;42261;52.094;4.326;2022-07-29T04:46:27;1.95;;;0.90;;
56363;SDS011;42261;52.094;4.326;2022-07-29T04:49:11;1.42;;;0.90;;
56363;SDS011;42261;52.094;4.326;2022-07-29T04:51:56;2.50;;;0.98;;
56363;SDS011;42261;52.094;4.326;2022-07-29T04:54:40;2.72;;;1.00;;
56363;SDS011;42261;52.094;4.326;2022-07-29T04:57:24;1.48;;;0.90;;
56363;SDS011;42261;52.094;4.326;2022-07-29T05:00:08;2.72;;;1.00;;
56363;SDS011;42261;52.094;4.326;2022-07-29T05:02:53;1.33;;;0.90;;
56363;SDS011;42261;52.094;4.326;2022-07-29T05:05:37;2.58;;;0.93;;
56363;SDS011;42261;52.094;4.326;2022-07-29T05:08:21;2.90;;;0.90;;
56363;SDS011;42261;52.094;4.326;2022-07-29T05:11:05;1.60;;;0.80;;
56363;SDS011;42261;52.094;4.326;2022-07-29T05:13:50;1.27;;;0.90;;
56363;SDS011;42261;52.094;4.326;2022-07-29T05:16:34;1.00;;;0.90;;
56363;SDS011;42261;52.094;4.326;2022-07-29T05:19:18;1.08;;;0.90;;
56363;SDS011;42261;52.094;4.326;2022-07-29T05:22:02;2.47;;;1.33;;
56363;SDS011;42261;52.094;4.326;2022-07-29T05:24:46;2.97;;;0.95;;
56363;SDS011;42261;52.094;4.326;2022-07-29T05:27:31;2.28;;;1.10;;
56363;SDS011;42261;52.094;4.326;2022-07-29T05:30:15;4.22;;;0.88;;
56363;SDS011;42261;52.094;4.326;2022-07-29T05:32:59;1.85;;;0.90;;
56363;SDS011;42261;52.094;4.326;2022-07-29T05:35:44;1.75;;;0.88;;
56363;SDS011;42261;52.094;4.326;2022-07-29T05:38:28;2.50;;;0.90;;
56363;SDS011;42261;52.094;4.326;2022-07-29T05:41:12;2.53;;;1.00;;
56363;SDS011;42261;52.094;4.326;2022-07-29T05:43:58;2.42;;;0.90;;
56363;SDS011;42261;52.094;4.326;2022-07-29T05:46:42;3.38;;;0.95;;
56363;SDS011;42261;52.094;4.326;2022-07-29T05:49:26;4.88;;;0.95;;
56363;SDS011;42261;52.094;4.326;2022-07-29T05:52:10;1.10;;;0.90;;
56363;SDS011;42261;52.094;4.326;2022-07-29T05:54:55;1.20;;;0.80;;
56363;SDS011;42261;52.094;4.326;2022-07-29T05:57:39;1.15;;;0.80;;
56363;SDS011;42261;52.094;4.326;2022-07-29T06:00:24;1.85;;;0.80;;
56363;SDS011;42261;52.094;4.326;2022-07-29T06:03:08;3.55;;;1.00;;
56363;SDS011;42261;52.094;4.326;2022-07-29T06:05:52;1.75;;;0.82;;
56363;SDS011;42261;52.094;4.326;2022-07-29T06:08:37;1.48;;;0.88;;
56363;SDS011;42261;52.094;4.326;2022-07-29T06:11:21;1.55;;;0.80;;
56363;SDS011;42261;52.094;4.326;2022-07-29T06:14:05;3.10;;;0.80;;
56363;SDS011;42261;52.094;4.326;2022-07-29T06:16:49;0.90;;;0.80;;
56363;SDS011;42261;52.094;4.326;2022-07-29T06:19:34;3.75;;;1.05;;
56363;SDS011;42261;52.094;4.326;2022-07-29T06:22:19;3.50;;;1.00;;
56363;SDS011;42261;52.094;4.326;2022-07-29T06:25:03;2.47;;;0.98;;
56363;SDS011;42261;52.094;4.326;2022-07-29T06:27:47;1.92;;;0.82;;
56363;SDS011;42261;52.094;4.326;2022-07-29T06:30:31;2.35;;;0.80;;
56363;SDS011;42261;52.094;4.326;2022-07-29T06:33:17;1.50;;;1.00;;
56363;SDS011;42261;52.094;4.326;2022-07-29T06:36:05;2.38;;;1.10;;
56363;SDS011;42261;52.094;4.326;2022-07-29T06:38:49;2.05;;;1.00;;
56363;SDS011;42261;52.094;4.326;2022-07-29T06:41:34;1.23;;;0.80;;
56363;SDS011;42261;52.094;4.326;2022-07-29T06:44:19;4.70;;;1.00;;
56363;SDS011;42261;52.094;4.326;2022-07-29T06:47:04;2.28;;;0.90;;
56363;SDS011;42261;52.094;4.326;2022-07-29T06:49:48;2.17;;;0.90;;
56363;SDS011;42261;52.094;4.326;2022-07-29T06:52:32;3.17;;;1.35;;
56363;SDS011;42261;52.094;4.326;2022-07-29T06:55:17;1.38;;;0.93;;
56363;SDS011;42261;52.094;4.326;2022-07-29T06:58:03;2.63;;;0.90;;
56363;SDS011;42261;52.094;4.326;2022-07-29T07:00:47;3.58;;;1.25;;
56363;SDS011;42261;52.094;4.326;2022-07-29T07:03:31;1.40;;;1.00;;
56363;SDS011;42261;52.094;4.326;2022-07-29T07:06:16;2.95;;;1.48;;
56363;SDS011;42261;52.094;4.326;2022-07-29T07:09:00;2.13;;;1.10;;
56363;SDS011;42261;52.094;4.326;2022-07-29T07:11:45;4.65;;;1.38;;
56363;SDS011;42261;52.094;4.326;2022-07-29T07:14:29;2.65;;;0.82;;
56363;SDS011;42261;52.094;4.326;2022-07-29T07:17:13;3.80;;;0.90;;
56363;SDS011;42261;52.094;4.326;2022-07-29T07:19:58;2.67;;;1.20;;
56363;SDS011;42261;52.094;4.326;2022-07-29T07:22:42;6.13;;;1.10;;
56363;SDS011;42261;52.094;4.326;2022-07-29T07:25:27;5.63;;;2.50;;
56363;SDS011;42261;52.094;4.326;2022-07-29T07:28:12;5.13;;;1.70;;
56363;SDS011;42261;52.094;4.326;2022-07-29T07:30:56;3.15;;;1.00;;
56363;SDS011;42261;52.094;4.326;2022-07-29T07:33:40;1.67;;;1.30;;
56363;SDS011;42261;52.094;4.326;2022-07-29T07:36:24;2.33;;;1.10;;
56363;SDS011;42261;52.094;4.326;2022-07-29T07:39:08;3.10;;;1.20;;
56363;SDS011;42261;52.094;4.326;2022-07-29T07:41:52;4.70;;;1.20;;
56363;SDS011;42261;52.094;4.326;2022-07-29T07:44:37;2.35;;;1.48;;
56363;SDS011;42261;52.094;4.326;2022-07-29T07:47:21;2.80;;;1.20;;
56363;SDS011;42261;52.094;4.326;2022-07-29T07:50:08;2.47;;;1.10;;
56363;SDS011;42261;52.094;4.326;2022-07-29T07:52:54;3.08;;;1.13;;
56363;SDS011;42261;52.094;4.326;2022-07-29T07:55:41;3.03;;;1.30;;
56363;SDS011;42261;52.094;4.326;2022-07-29T07:58:26;2.83;;;1.20;;
56363;SDS011;42261;52.094;4.326;2022-07-29T08:01:10;3.30;;;1.27;;
56363;SDS011;42261;52.094;4.326;2022-07-29T08:03:54;3.97;;;1.27;;
56363;SDS011;42261;52.094;4.326;2022-07-29T08:06:38;4.72;;;1.45;;
56363;SDS011;42261;52.094;4.326;2022-07-29T08:09:23;4.00;;;1.20;;
56363;SDS011;42261;52.094;4.326;2022-07-29T08:12:09;2.65;;;1.23;;
56363;SDS011;42261;52.094;4.326;2022-07-29T08:14:53;6.95;;;2.85;;
56363;SDS011;42261;52.094;4.326;2022-07-29T08:17:38;5.38;;;1.60;;
56363;SDS011;42261;52.094;4.326;2022-07-29T08:20:22;2.47;;;1.17;;
56363;SDS011;42261;52.094;4.326;2022-07-29T08:23:06;5.40;;;1.50;;
56363;SDS011;42261;52.094;4.326;2022-07-29T08:25:52;2.40;;;1.40;;
56363;SDS011;42261;52.094;4.326;2022-07-29T08:28:39;1.73;;;1.20;;
56363;SDS011;42261;52.094;4.326;2022-07-29T08:31:29;3.60;;;1.60;;
56363;SDS011;42261;52.094;4.326;2022-07-29T08:34:14;5.20;;;1.60;;
56363;SDS011;42261;52.094;4.326;2022-07-29T08:36:58;2.95;;;1.10;;
56363;SDS011;42261;52.094;4.326;2022-07-29T08:39:42;3.00;;;1.00;;
56363;SDS011;42261;52.094;4.326;2022-07-29T08:42:26;4.15;;;1.25;;
56363;SDS011;42261;52.094;4.326;2022-07-29T08:45:13;2.65;;;1.40;;
56363;SDS011;42261;52.094;4.326;2022-07-29T08:47:57;3.00;;;1.10;;
56363;SDS011;42261;52.094;4.326;2022-07-29T08:50:42;2.97;;;1.20;;
56363;SDS011;42261;52.094;4.326;2022-07-29T08:53:26;1.55;;;1.20;;
56363;SDS011;42261;52.094;4.326;2022-07-29T08:56:12;3.45;;;1.35;;
56363;SDS011;42261;52.094;4.326;2022-07-29T08:58:58;3.30;;;1.73;;
56363;SDS011;42261;52.094;4.326;2022-07-29T09:01:44;4.25;;;1.13;;
56363;SDS011;42261;52.094;4.326;2022-07-29T09:04:31;4.20;;;1.50;;
56363;SDS011;42261;52.094;4.326;2022-07-29T09:07:18;1.30;;;1.02;;
56363;SDS011;42261;52.094;4.326;2022-07-29T09:10:03;2.88;;;1.25;;
56363;SDS011;42261;52.094;4.326;2022-07-29T09:12:48;2.80;;;1.33;;
56363;SDS011;42261;52.094;4.326;2022-07-29T09:15:33;3.78;;;1.30;;
56363;SDS011;42261;52.094;4.326;2022-07-29T09:18:37;2.88;;;1.10;;
56363;SDS011;42261;52.094;4.326;2022-07-29T09:21:23;2.97;;;1.25;;
56363;SDS011;42261;52.094;4.326;2022-07-29T09:24:27;4.50;;;1.30;;
56363;SDS011;42261;52.094;4.326;2022-07-29T09:27:32;4.75;;;1.30;;
56363;SDS011;42261;52.094;4.326;2022-07-29T09:30:18;3.88;;;1.10;;
56363;SDS011;42261;52.094;4.326;2022-07-29T09:33:06;4.32;;;1.50;;
56363;SDS011;42261;52.094;4.326;2022-07-29T09:35:59;3.40;;;1.20;;
56363;SDS011;42261;52.094;4.326;2022-07-29T09:38:44;3.10;;;1.25;;
56363;SDS011;42261;52.094;4.326;2022-07-29T09:41:45;4.07;;;1.15;;
56363;SDS011;42261;52.094;4.326;2022-07-29T09:44:46;3.35;;;1.25;;
56363;SDS011;42261;52.094;4.326;2022-07-29T09:47:42;3.42;;;1.15;;
56363;SDS011;42261;52.094;4.326;2022-07-29T09:50:36;2.00;;;1.45;;
56363;SDS011;42261;52.094;4.326;2022-07-29T09:53:31;5.07;;;1.20;;
56363;SDS011;42261;52.094;4.326;2022-07-29T09:56:17;3.15;;;1.40;;
56363;SDS011;42261;52.094;4.326;2022-07-29T09:59:08;5.38;;;1.30;;
56363;SDS011;42261;52.094;4.326;2022-07-29T10:01:52;2.55;;;1.33;;
56363;SDS011;42261;52.094;4.326;2022-07-29T10:04:41;2.95;;;1.10;;
56363;SDS011;42261;52.094;4.326;2022-07-29T10:07:26;2.85;;;1.27;;
56363;SDS011;42261;52.094;4.326;2022-07-29T10:10:18;3.13;;;1.20;;
56363;SDS011;42261;52.094;4.326;2022-07-29T10:13:07;6.20;;;1.67;;
56363;SDS011;42261;52.094;4.326;2022-07-29T10:15:53;7.45;;;1.33;;
56363;SDS011;42261;52.094;4.326;2022-07-29T10:18:38;2.40;;;1.10;;
56363;SDS011;42261;52.094;4.326;2022-07-29T10:21:22;5.20;;;1.58;;
56363;SDS011;42261;52.094;4.326;2022-07-29T10:24:07;5.18;;;1.40;;
56363;SDS011;42261;52.094;4.326;2022-07-29T10:26:54;4.53;;;2.10;;
56363;SDS011;42261;52.094;4.326;2022-07-29T10:29:39;3.65;;;1.52;;
56363;SDS011;42261;52.094;4.326;2022-07-29T10:32:34;5.95;;;1.20;;
56363;SDS011;42261;52.094;4.326;2022-07-29T10:35:40;2.90;;;1.25;;
56363;SDS011;42261;52.094;4.326;2022-07-29T10:44:39;3.28;;;1.48;;
56363;SDS011;42261;52.094;4.326;2022-07-29T10:47:25;2.30;;;1.60;;
56363;SDS011;42261;52.094;4.326;2022-07-29T10:50:09;2.83;;;1.40;;
56363;SDS011;42261;52.094;4.326;2022-07-29T10:52:54;4.93;;;1.63;;
56363;SDS011;42261;52.094;4.326;2022-07-29T10:55:42;3.78;;;1.60;;
56363;SDS011;42261;52.094;4.326;2022-07-29T10:58:28;5.40;;;1.25;;
56363;SDS011;42261;52.094;4.326;2022-07-29T11:01:28;5.35;;;1.48;;
56363;SDS011;42261;52.094;4.326;2022-07-29T11:04:13;5.00;;;1.60;;
56363;SDS011;42261;52.094;4.326;2022-07-29T11:09:42;4.25;;;1.60;;
56363;SDS011;42261;52.094;4.326;2022-07-29T11:15:21;6.18;;;1.88;;
56363;SDS011;42261;52.094;4.326;2022-07-29T11:18:07;2.97;;;1.70;;
56363;SDS011;42261;52.094;4.326;2022-07-29T11:20:52;4.82;;;1.50;;
56363;SDS011;42261;52.094;4.326;2022-07-29T11:23:39;4.10;;;1.38;;
56363;SDS011;42261;52.094;4.326;2022-07-29T11:26:26;2.63;;;1.30;;
56363;SDS011;42261;52.094;4.326;2022-07-29T11:29:20;2.95;;;1.30;;
56363;SDS011;42261;52.094;4.326;2022-07-29T11:32:09;2.60;;;1.20;;
56363;SDS011;42261;52.094;4.326;2022-07-29T11:44:01;3.88;;;1.60;;
56363;SDS011;42261;52.094;4.326;2022-07-29T11:49:32;3.90;;;1.65;;
56363;SDS011;42261;52.094;4.326;2022-07-29T11:52:17;3.90;;;1.38;;
56363;SDS011;42261;52.094;4.326;2022-07-29T11:55:02;3.17;;;1.70;;
56363;SDS011;42261;52.094;4.326;2022-07-29T11:57:50;6.00;;;1.75;;
56363;SDS011;42261;52.094;4.326;2022-07-29T12:00:42;5.00;;;1.60;;
56363;SDS011;42261;52.094;4.326;2022-07-29T12:06:16;5.18;;;1.52;;
56363;SDS011;42261;52.094;4.326;2022-07-29T12:09:00;2.20;;;1.33;;
56363;SDS011;42261;52.094;4.326;2022-07-29T12:11:45;3.28;;;1.70;;
56363;SDS011;42261;52.094;4.326;2022-07-29T12:14:31;3.90;;;1.70;;
56363;SDS011;42261;52.094;4.326;2022-07-29T12:17:26;3.58;;;1.70;;
56363;SDS011;42261;52.094;4.326;2022-07-29T12:20:14;4.20;;;1.90;;
56363;SDS011;42261;52.094;4.326;2022-07-29T12:23:11;6.13;;;1.52;;
56363;SDS011;42261;52.094;4.326;2022-07-29T12:25:57;4.15;;;1.55;;
56363;SDS011;42261;52.094;4.326;2022-07-29T12:28:44;3.42;;;2.00;;
56363;SDS011;42261;52.094;4.326;2022-07-29T12:31:28;5.05;;;1.75;;
56363;SDS011;42261;52.094;4.326;2022-07-29T12:34:13;3.03;;;1.38;;
56363;SDS011;42261;52.094;4.326;2022-07-29T12:36:59;4.68;;;2.03;;
56363;SDS011;42261;52.094;4.326;2022-07-29T12:39:45;3.97;;;1.40;;
56363;SDS011;42261;52.094;4.326;2022-07-29T12:42:30;2.85;;;1.52;;
56363;SDS011;42261;52.094;4.326;2022-07-29T12:45:15;3.65;;;1.45;;
56363;SDS011;42261;52.094;4.326;2022-07-29T12:48:00;3.40;;;1.60;;
56363;SDS011;42261;52.094;4.326;2022-07-29T12:50:55;5.75;;;2.78;;
56363;SDS011;42261;52.094;4.326;2022-07-29T12:54:01;4.43;;;2.00;;
56363;SDS011;42261;52.094;4.326;2022-07-29T12:56:47;4.85;;;1.90;;
56363;SDS011;42261;52.094;4.326;2022-07-29T12:59:42;8.82;;;2.00;;
56363;SDS011;42261;52.094;4.326;2022-07-29T13:02:26;3.33;;;1.70;;
56363;SDS011;42261;52.094;4.326;2022-07-29T13:05:10;7.88;;;1.80;;
56363;SDS011;42261;52.094;4.326;2022-07-29T13:07:56;3.28;;;1.30;;
56363;SDS011;42261;52.094;4.326;2022-07-29T13:10:57;5.07;;;1.77;;
56363;SDS011;42261;52.094;4.326;2022-07-29T13:13:50;3.97;;;1.60;;
56363;SDS011;42261;52.094;4.326;2022-07-29T13:16:36;4.35;;;1.80;;
56363;SDS011;42261;52.094;4.326;2022-07-29T13:19:45;4.95;;;1.73;;
56363;SDS011;42261;52.094;4.326;2022-07-29T13:22:31;4.70;;;1.52;;
56363;SDS011;42261;52.094;4.326;2022-07-29T13:25:14;5.75;;;1.88;;
56363;SDS011;42261;52.094;4.326;2022-07-29T13:28:10;4.25;;;1.38;;
56363;SDS011;42261;52.094;4.326;2022-07-29T13:30:55;6.53;;;1.75;;
56363;SDS011;42261;52.094;4.326;2022-07-29T13:33:39;6.18;;;2.00;;
56363;SDS011;42261;52.094;4.326;2022-07-29T13:36:24;3.88;;;1.83;;
56363;SDS011;42261;52.094;4.326;2022-07-29T13:39:08;4.00;;;1.58;;
56363;SDS011;42261;52.094;4.326;2022-07-29T13:41:52;4.53;;;1.83;;
56363;SDS011;42261;52.094;4.326;2022-07-29T13:44:37;3.47;;;1.25;;
56363;SDS011;42261;52.094;4.326;2022-07-29T13:47:23;4.20;;;1.60;;
56363;SDS011;42261;52.094;4.326;2022-07-29T13:50:07;6.90;;;1.77;;
56363;SDS011;42261;52.094;4.326;2022-07-29T13:52:53;3.08;;;1.38;;
56363;SDS011;42261;52.094;4.326;2022-07-29T13:55:37;2.92;;;1.08;;
56363;SDS011;42261;52.094;4.326;2022-07-29T13:58:21;2.38;;;1.35;;
56363;SDS011;42261;52.094;4.326;2022-07-29T14:01:05;3.95;;;1.50;;
56363;SDS011;42261;52.094;4.326;2022-07-29T14:03:50;4.05;;;1.30;;
56363;SDS011;42261;52.094;4.326;2022-07-29T14:06:35;5.85;;;1.65;;
56363;SDS011;42261;52.094;4.326;2022-07-29T14:09:19;4.60;;;1.95;;
56363;SDS011;42261;52.094;4.326;2022-07-29T14:12:04;6.10;;;1.70;;
56363;SDS011;42261;52.094;4.326;2022-07-29T14:14:48;6.30;;;1.65;;
56363;SDS011;42261;52.094;4.326;2022-07-29T14:17:32;6.00;;;1.80;;
56363;SDS011;42261;52.094;4.326;2022-07-29T14:20:17;4.15;;;1.20;;
56363;SDS011;42261;52.094;4.326;2022-07-29T14:23:01;4.20;;;1.50;;
56363;SDS011;42261;52.094;4.326;2022-07-29T14:25:46;3.75;;;1.38;;
56363;SDS011;42261;52.094;4.326;2022-07-29T14:28:31;4.28;;;1.20;;
56363;SDS011;42261;52.094;4.326;2022-07-29T14:31:16;3.38;;;1.30;;
56363;SDS011;42261;52.094;4.326;2022-07-29T14:34:00;2.70;;;1.13;;
56363;SDS011;42261;52.094;4.326;2022-07-29T14:36:44;4.32;;;1.25;;
56363;SDS011;42261;52.094;4.326;2022-07-29T14:39:29;4.10;;;1.17;;
56363;SDS011;42261;52.094;4.326;2022-07-29T14:42:14;2.50;;;1.20;;
56363;SDS011;42261;52.094;4.326;2022-07-29T14:44:58;1.77;;;0.90;;
56363;SDS011;42261;52.094;4.326;2022-07-29T14:47:43;3.40;;;0.80;;
56363;SDS011;42261;52.094;4.326;2022-07-29T14:50:26;5.53;;;1.10;;
56363;SDS011;42261;52.094;4.326;2022-07-29T14:53:11;3.42;;;0.90;;
56363;SDS011;42261;52.094;4.326;2022-07-29T14:55:57;5.00;;;1.23;;
56363;SDS011;42261;52.094;4.326;2022-07-29T14:58:42;2.55;;;0.98;;
56363;SDS011;42261;52.094;4.326;2022-07-29T15:01:26;4.63;;;1.13;;
56363;SDS011;42261;52.094;4.326;2022-07-29T15:04:10;5.50;;;1.15;;
56363;SDS011;42261;52.094;4.326;2022-07-29T15:06:55;1.60;;;1.02;;
56363;SDS011;42261;52.094;4.326;2022-07-29T15:09:39;6.28;;;1.42;;
56363;SDS011;42261;52.094;4.326;2022-07-29T15:12:24;4.70;;;1.20;;
56363;SDS011;42261;52.094;4.326;2022-07-29T15:15:08;2.38;;;1.02;;
56363;SDS011;42261;52.094;4.326;2022-07-29T15:17:53;2.83;;;0.95;;
56363;SDS011;42261;52.094;4.326;2022-07-29T15:20:38;5.82;;;1.30;;
56363;SDS011;42261;52.094;4.326;2022-07-29T15:23:22;8.38;;;1.38;;
56363;SDS011;42261;52.094;4.326;2022-07-29T15:26:07;8.18;;;1.73;;
56363;SDS011;42261;52.094;4.326;2022-07-29T15:28:51;3.67;;;1.33;;
56363;SDS011;42261;52.094;4.326;2022-07-29T15:31:36;6.22;;;1.23;;
56363;SDS011;42261;52.094;4.326;2022-07-29T15:34:20;4.95;;;1.10;;
56363;SDS011;42261;52.094;4.326;2022-07-29T15:37:09;3.20;;;0.93;;
56363;SDS011;42261;52.094;4.326;2022-07-29T15:39:55;5.45;;;1.20;;
56363;SDS011;42261;52.094;4.326;2022-07-29T15:42:40;2.55;;;1.15;;
56363;SDS011;42261;52.094;4.326;2022-07-29T15:45:24;4.55;;;1.30;;
56363;SDS011;42261;52.094;4.326;2022-07-29T15:48:09;4.32;;;1.00;;
56363;SDS011;42261;52.094;4.326;2022-07-29T15:50:54;6.65;;;1.35;;
56363;SDS011;42261;52.094;4.326;2022-07-29T15:53:39;9.43;;;1.75;;
56363;SDS011;42261;52.094;4.326;2022-07-29T15:56:24;3.75;;;1.50;;
56363;SDS011;42261;52.094;4.326;2022-07-29T15:59:09;2.70;;;1.20;;
56363;SDS011;42261;52.094;4.326;2022-07-29T16:01:53;4.63;;;1.40;;
56363;SDS011;42261;52.094;4.326;2022-07-29T16:04:37;3.45;;;1.05;;
56363;SDS011;42261;52.094;4.326;2022-07-29T16:07:21;3.50;;;1.30;;
56363;SDS011;42261;52.094;4.326;2022-07-29T16:10:06;3.65;;;1.08;;
56363;SDS011;42261;52.094;4.326;2022-07-29T16:12:50;9.90;;;1.75;;
56363;SDS011;42261;52.094;4.326;2022-07-29T16:15:35;2.80;;;1.20;;
56363;SDS011;42261;52.094;4.326;2022-07-29T16:18:18;6.93;;;1.60;;
56363;SDS011;42261;52.094;4.326;2022-07-29T16:21:02;5.35;;;1.45;;
56363;SDS011;42261;52.094;4.326;2022-07-29T16:23:47;8.43;;;1.70;;
56363;SDS011;42261;52.094;4.326;2022-07-29T16:26:32;6.18;;;1.33;;
56363;SDS011;42261;52.094;4.326;2022-07-29T16:29:18;2.95;;;1.20;;
56363;SDS011;42261;52.094;4.326;2022-07-29T16:32:15;7.95;;;2.35;;
56363;SDS011;42261;52.094;4.326;2022-07-29T16:35:02;4.85;;;2.10;;
56363;SDS011;42261;52.094;4.326;2022-07-29T16:37:49;9.60;;;1.40;;
56363;SDS011;42261;52.094;4.326;2022-07-29T16:40:34;4.22;;;1.10;;
56363;SDS011;42261;52.094;4.326;2022-07-29T16:43:18;7.00;;;1.50;;
56363;SDS011;42261;52.094;4.326;2022-07-29T16:46:03;4.50;;;1.42;;
56363;SDS011;42261;52.094;4.326;2022-07-29T16:48:50;7.78;;;1.40;;
56363;SDS011;42261;52.094;4.326;2022-07-29T16:51:35;3.60;;;1.17;;
56363;SDS011;42261;52.094;4.326;2022-07-29T16:54:19;5.35;;;1.95;;
56363;SDS011;42261;52.094;4.326;2022-07-29T16:57:04;3.35;;;1.00;;
56363;SDS011;42261;52.094;4.326;2022-07-29T16:59:50;5.32;;;1.05;;
56363;SDS011;42261;52.094;4.326;2022-07-29T17:02:36;4.63;;;1.23;;
56363;SDS011;42261;52.094;4.326;2022-07-29T17:05:21;6.82;;;1.27;;
56363;SDS011;42261;52.094;4.326;2022-07-29T17:08:06;3.00;;;1.00;;
56363;SDS011;42261;52.094;4.326;2022-07-29T17:10:50;3.63;;;0.98;;
56363;SDS011;42261;52.094;4.326;2022-07-29T17:13:35;3.05;;;1.00;;
56363;SDS011;42261;52.094;4.326;2022-07-29T17:16:19;4.70;;;1.15;;